sensor_id;sensor_type;location;lat;lon;timestamp;P1;durP1;ratioP1;P2;durP2;ratioP2
4812;SDS011;2420;51.202;8.698;2023-03-21T00:01:17;7.45;;;4.30;;
4812;SDS011;2420;51.202;8.698;2023-03-21T00:03:42;11.38;;;4.63;;
4812;SDS011;2420;51.202;8.698;2023-03-21T00:06:09;8.23;;;4.60;;
4812;SDS011;2420;51.202;8.698;2023-03-21T00:08:37;9.88;;;4.20;;
4812;SDS011;2420;51.202;8.698;2023-03-21T00:11:04;7.53;;;4.22;;
4812;SDS011;2420;51.202;8.698;2023-03-21T00:13:32;9.05;;;4.20;;
4812;SDS011;2420;51.202;8.698;2023-03-21T00:16:03;10.45;;;4.28;;
4812;SDS011;2420;51.202;8.698;2023-03-21T00:18:30;8.57;;;3.88;;
4812;SDS011;2420;51.202;8.698;2023-03-21T00:20:59;8.50;;;4.47;;
4812;SDS011;2420;51.202;8.698;2023-03-21T00:23:27;7.70;;;4.25;;
4812;SDS011;2420;51.202;8.698;2023-03-21T00:25:56;10.63;;;4.25;;
4812;SDS011;2420;51.202;8.698;2023-03-21T00:28:22;9.68;;;4.30;;
4812;SDS011;2420;51.202;8.698;2023-03-21T00:30:49;7.63;;;4.25;;
4812;SDS011;2420;51.202;8.698;2023-03-21T00:33:15;7.72;;;4.28;;
4812;SDS011;2420;51.202;8.698;2023-03-21T00:35:44;12.18;;;4.70;;
4812;SDS011;2420;51.202;8.698;2023-03-21T00:38:13;9.93;;;4.40;;
4812;SDS011;2420;51.202;8.698;2023-03-21T00:40:39;7.93;;;4.55;;
4812;SDS011;2420;51.202;8.698;2023-03-21T00:43:05;9.45;;;4.68;;
4812;SDS011;2420;51.202;8.698;2023-03-21T00:45:30;9.40;;;4.13;;
4812;SDS011;2420;51.202;8.698;2023-03-21T00:47:56;9.95;;;4.40;;
4812;SDS011;2420;51.202;8.698;2023-03-21T00:50:22;8.90;;;4.13;;
4812;SDS011;2420;51.202;8.698;2023-03-21T00:52:48;7.95;;;3.95;;
4812;SDS011;2420;51.202;8.698;2023-03-21T00:55:15;8.82;;;4.22;;
4812;SDS011;2420;51.202;8.698;2023-03-21T00:57:42;11.43;;;4.50;;
4812;SDS011;2420;51.202;8.698;2023-03-21T01:00:09;7.25;;;4.30;;
4812;SDS011;2420;51.202;8.698;2023-03-21T01:02:38;8.23;;;4.55;;
4812;SDS011;2420;51.202;8.698;2023-03-21T01:05:20;11.63;;;4.20;;
4812;SDS011;2420;51.202;8.698;2023-03-21T01:08:06;10.98;;;5.10;;
4812;SDS011;2420;51.202;8.698;2023-03-21T01:10:31;7.30;;;4.28;;
4812;SDS011;2420;51.202;8.698;2023-03-21T01:12:57;6.95;;;4.45;;
4812;SDS011;2420;51.202;8.698;2023-03-21T01:15:24;10.27;;;4.50;;
4812;SDS011;2420;51.202;8.698;2023-03-21T01:17:49;7.32;;;4.25;;
4812;SDS011;2420;51.202;8.698;2023-03-21T01:20:15;11.00;;;4.28;;
4812;SDS011;2420;51.202;8.698;2023-03-21T01:22:41;8.43;;;4.30;;
4812;SDS011;2420;51.202;8.698;2023-03-21T01:25:08;7.32;;;4.45;;
4812;SDS011;2420;51.202;8.698;2023-03-21T01:27:33;8.90;;;4.30;;
4812;SDS011;2420;51.202;8.698;2023-03-21T01:29:59;8.18;;;4.15;;
4812;SDS011;2420;51.202;8.698;2023-03-21T01:32:24;10.98;;;4.40;;
4812;SDS011;2420;51.202;8.698;2023-03-21T01:34:50;9.52;;;4.50;;
4812;SDS011;2420;51.202;8.698;2023-03-21T01:37:15;7.63;;;4.72;;
4812;SDS011;2420;51.202;8.698;2023-03-21T01:39:41;5.78;;;3.88;;
4812;SDS011;2420;51.202;8.698;2023-03-21T01:42:09;10.55;;;4.10;;
4812;SDS011;2420;51.202;8.698;2023-03-21T01:47:21;11.27;;;4.63;;
4812;SDS011;2420;51.202;8.698;2023-03-21T01:49:49;9.65;;;5.13;;
4812;SDS011;2420;51.202;8.698;2023-03-21T01:52:17;9.65;;;4.80;;
4812;SDS011;2420;51.202;8.698;2023-03-21T01:54:44;7.55;;;4.45;;
4812;SDS011;2420;51.202;8.698;2023-03-21T01:57:13;7.50;;;4.28;;
4812;SDS011;2420;51.202;8.698;2023-03-21T01:59:44;9.93;;;4.65;;
4812;SDS011;2420;51.202;8.698;2023-03-21T02:02:16;6.20;;;4.38;;
4812;SDS011;2420;51.202;8.698;2023-03-21T02:04:47;11.80;;;6.15;;
4812;SDS011;2420;51.202;8.698;2023-03-21T02:07:16;9.88;;;5.53;;
4812;SDS011;2420;51.202;8.698;2023-03-21T02:09:49;8.80;;;4.38;;
4812;SDS011;2420;51.202;8.698;2023-03-21T02:12:15;10.27;;;4.95;;
4812;SDS011;2420;51.202;8.698;2023-03-21T02:14:42;6.93;;;4.32;;
4812;SDS011;2420;51.202;8.698;2023-03-21T02:17:17;7.75;;;4.25;;
4812;SDS011;2420;51.202;8.698;2023-03-21T02:27:43;11.40;;;5.53;;
4812;SDS011;2420;51.202;8.698;2023-03-21T02:30:19;16.25;;;5.15;;
4812;SDS011;2420;51.202;8.698;2023-03-21T02:33:15;14.25;;;5.85;;
4812;SDS011;2420;51.202;8.698;2023-03-21T02:46:26;11.73;;;5.65;;
4812;SDS011;2420;51.202;8.698;2023-03-21T02:49:07;10.65;;;5.45;;
4812;SDS011;2420;51.202;8.698;2023-03-21T02:51:33;10.15;;;5.35;;
4812;SDS011;2420;51.202;8.698;2023-03-21T02:54:02;14.40;;;5.80;;
4812;SDS011;2420;51.202;8.698;2023-03-21T02:56:31;11.23;;;6.13;;
4812;SDS011;2420;51.202;8.698;2023-03-21T02:58:58;12.30;;;6.20;;
4812;SDS011;2420;51.202;8.698;2023-03-21T03:01:24;12.30;;;6.45;;
4812;SDS011;2420;51.202;8.698;2023-03-21T03:03:50;13.23;;;6.35;;
4812;SDS011;2420;51.202;8.698;2023-03-21T03:06:17;13.73;;;6.22;;
4812;SDS011;2420;51.202;8.698;2023-03-21T03:09:02;12.63;;;6.20;;
4812;SDS011;2420;51.202;8.698;2023-03-21T03:11:54;13.27;;;5.68;;
4812;SDS011;2420;51.202;8.698;2023-03-21T03:19:56;14.13;;;6.40;;
4812;SDS011;2420;51.202;8.698;2023-03-21T03:22:37;15.30;;;7.03;;
4812;SDS011;2420;51.202;8.698;2023-03-21T03:25:08;13.48;;;6.18;;
4812;SDS011;2420;51.202;8.698;2023-03-21T03:27:39;16.15;;;7.10;;
4812;SDS011;2420;51.202;8.698;2023-03-21T03:30:08;13.00;;;6.03;;
4812;SDS011;2420;51.202;8.698;2023-03-21T03:32:41;12.80;;;5.72;;
4812;SDS011;2420;51.202;8.698;2023-03-21T03:35:12;11.68;;;6.35;;
4812;SDS011;2420;51.202;8.698;2023-03-21T03:37:41;10.75;;;5.63;;
4812;SDS011;2420;51.202;8.698;2023-03-21T03:40:13;9.38;;;5.53;;
4812;SDS011;2420;51.202;8.698;2023-03-21T03:45:12;9.55;;;4.90;;
4812;SDS011;2420;51.202;8.698;2023-03-21T03:47:42;13.82;;;5.65;;
4812;SDS011;2420;51.202;8.698;2023-03-21T03:52:50;11.68;;;5.25;;
4812;SDS011;2420;51.202;8.698;2023-03-21T03:55:19;10.27;;;5.32;;
4812;SDS011;2420;51.202;8.698;2023-03-21T03:57:46;12.98;;;5.10;;
4812;SDS011;2420;51.202;8.698;2023-03-21T04:00:12;10.40;;;5.10;;
4812;SDS011;2420;51.202;8.698;2023-03-21T04:02:40;9.50;;;4.97;;
4812;SDS011;2420;51.202;8.698;2023-03-21T04:05:06;11.73;;;5.38;;
4812;SDS011;2420;51.202;8.698;2023-03-21T04:07:32;15.48;;;5.75;;
4812;SDS011;2420;51.202;8.698;2023-03-21T04:09:57;10.68;;;5.55;;
4812;SDS011;2420;51.202;8.698;2023-03-21T04:12:23;9.05;;;5.15;;
4812;SDS011;2420;51.202;8.698;2023-03-21T04:14:49;9.82;;;4.85;;
4812;SDS011;2420;51.202;8.698;2023-03-21T04:17:15;9.68;;;4.75;;
4812;SDS011;2420;51.202;8.698;2023-03-21T04:19:42;7.55;;;4.60;;
4812;SDS011;2420;51.202;8.698;2023-03-21T04:22:09;11.57;;;5.07;;
4812;SDS011;2420;51.202;8.698;2023-03-21T04:24:36;10.20;;;4.78;;
4812;SDS011;2420;51.202;8.698;2023-03-21T04:27:03;9.00;;;4.88;;
4812;SDS011;2420;51.202;8.698;2023-03-21T04:29:32;10.27;;;4.80;;
4812;SDS011;2420;51.202;8.698;2023-03-21T04:31:58;13.38;;;5.68;;
4812;SDS011;2420;51.202;8.698;2023-03-21T04:34:23;8.57;;;5.15;;
4812;SDS011;2420;51.202;8.698;2023-03-21T04:36:52;12.05;;;5.53;;
4812;SDS011;2420;51.202;8.698;2023-03-21T04:39:18;18.85;;;5.90;;
4812;SDS011;2420;51.202;8.698;2023-03-21T04:41:44;13.13;;;5.65;;
4812;SDS011;2420;51.202;8.698;2023-03-21T04:44:11;11.82;;;5.45;;
4812;SDS011;2420;51.202;8.698;2023-03-21T04:46:38;11.18;;;5.75;;
4812;SDS011;2420;51.202;8.698;2023-03-21T04:49:04;12.38;;;5.68;;
4812;SDS011;2420;51.202;8.698;2023-03-21T04:51:33;12.25;;;6.03;;
4812;SDS011;2420;51.202;8.698;2023-03-21T04:53:59;11.13;;;6.20;;
4812;SDS011;2420;51.202;8.698;2023-03-21T04:56:28;13.10;;;6.15;;
4812;SDS011;2420;51.202;8.698;2023-03-21T04:59:00;11.95;;;6.25;;
4812;SDS011;2420;51.202;8.698;2023-03-21T05:01:30;12.45;;;6.47;;
4812;SDS011;2420;51.202;8.698;2023-03-21T05:03:56;13.98;;;6.75;;
4812;SDS011;2420;51.202;8.698;2023-03-21T05:06:22;12.55;;;5.85;;
4812;SDS011;2420;51.202;8.698;2023-03-21T05:08:48;13.65;;;6.25;;
4812;SDS011;2420;51.202;8.698;2023-03-21T05:11:14;12.88;;;6.32;;
4812;SDS011;2420;51.202;8.698;2023-03-21T05:13:39;12.25;;;6.30;;
4812;SDS011;2420;51.202;8.698;2023-03-21T05:16:05;11.18;;;6.10;;
4812;SDS011;2420;51.202;8.698;2023-03-21T05:18:31;12.10;;;6.50;;
4812;SDS011;2420;51.202;8.698;2023-03-21T05:21:02;13.25;;;6.72;;
4812;SDS011;2420;51.202;8.698;2023-03-21T05:23:28;10.10;;;6.15;;
4812;SDS011;2420;51.202;8.698;2023-03-21T05:25:55;15.90;;;6.68;;
4812;SDS011;2420;51.202;8.698;2023-03-21T05:28:21;10.73;;;6.47;;
4812;SDS011;2420;51.202;8.698;2023-03-21T05:30:46;11.07;;;6.32;;
4812;SDS011;2420;51.202;8.698;2023-03-21T05:33:12;14.15;;;6.25;;
4812;SDS011;2420;51.202;8.698;2023-03-21T05:35:38;11.75;;;6.00;;
4812;SDS011;2420;51.202;8.698;2023-03-21T05:38:04;13.05;;;6.22;;
4812;SDS011;2420;51.202;8.698;2023-03-21T05:40:29;13.48;;;6.63;;
4812;SDS011;2420;51.202;8.698;2023-03-21T05:42:55;15.07;;;6.30;;
4812;SDS011;2420;51.202;8.698;2023-03-21T05:45:20;14.23;;;6.47;;
4812;SDS011;2420;51.202;8.698;2023-03-21T05:47:46;10.68;;;5.82;;
4812;SDS011;2420;51.202;8.698;2023-03-21T05:50:12;12.00;;;6.13;;
4812;SDS011;2420;51.202;8.698;2023-03-21T05:52:38;13.50;;;6.35;;
4812;SDS011;2420;51.202;8.698;2023-03-21T05:55:04;14.43;;;5.93;;
4812;SDS011;2420;51.202;8.698;2023-03-21T05:57:30;14.85;;;6.82;;
4812;SDS011;2420;51.202;8.698;2023-03-21T05:59:59;12.77;;;6.47;;
4812;SDS011;2420;51.202;8.698;2023-03-21T06:02:25;14.18;;;6.25;;
4812;SDS011;2420;51.202;8.698;2023-03-21T06:04:51;13.88;;;6.40;;
4812;SDS011;2420;51.202;8.698;2023-03-21T06:07:17;11.55;;;5.65;;
4812;SDS011;2420;51.202;8.698;2023-03-21T06:09:42;10.77;;;5.85;;
4812;SDS011;2420;51.202;8.698;2023-03-21T06:12:08;11.05;;;5.70;;
4812;SDS011;2420;51.202;8.698;2023-03-21T06:14:34;10.35;;;5.28;;
4812;SDS011;2420;51.202;8.698;2023-03-21T06:17:00;13.70;;;5.40;;
4812;SDS011;2420;51.202;8.698;2023-03-21T06:19:26;8.90;;;5.60;;
4812;SDS011;2420;51.202;8.698;2023-03-21T06:21:51;12.75;;;5.72;;
4812;SDS011;2420;51.202;8.698;2023-03-21T06:24:17;12.80;;;6.10;;
4812;SDS011;2420;51.202;8.698;2023-03-21T06:26:43;13.95;;;5.80;;
4812;SDS011;2420;51.202;8.698;2023-03-21T06:29:09;12.10;;;6.03;;
4812;SDS011;2420;51.202;8.698;2023-03-21T06:31:35;12.65;;;5.47;;
4812;SDS011;2420;51.202;8.698;2023-03-21T06:34:00;9.95;;;5.70;;
4812;SDS011;2420;51.202;8.698;2023-03-21T06:36:26;16.17;;;6.03;;
4812;SDS011;2420;51.202;8.698;2023-03-21T06:38:52;11.15;;;5.97;;
4812;SDS011;2420;51.202;8.698;2023-03-21T06:41:17;12.32;;;5.65;;
4812;SDS011;2420;51.202;8.698;2023-03-21T06:43:43;13.80;;;5.35;;
4812;SDS011;2420;51.202;8.698;2023-03-21T06:46:09;13.18;;;5.80;;
4812;SDS011;2420;51.202;8.698;2023-03-21T06:48:35;12.73;;;5.82;;
4812;SDS011;2420;51.202;8.698;2023-03-21T06:51:01;10.52;;;5.75;;
4812;SDS011;2420;51.202;8.698;2023-03-21T06:53:28;18.48;;;5.88;;
4812;SDS011;2420;51.202;8.698;2023-03-21T06:55:55;10.23;;;5.40;;
4812;SDS011;2420;51.202;8.698;2023-03-21T06:58:21;11.75;;;5.45;;
4812;SDS011;2420;51.202;8.698;2023-03-21T07:00:47;10.77;;;5.40;;
4812;SDS011;2420;51.202;8.698;2023-03-21T07:03:13;8.00;;;4.55;;
4812;SDS011;2420;51.202;8.698;2023-03-21T07:05:40;10.18;;;4.55;;
4812;SDS011;2420;51.202;8.698;2023-03-21T07:08:06;9.18;;;5.35;;
4812;SDS011;2420;51.202;8.698;2023-03-21T07:10:40;7.90;;;5.07;;
4812;SDS011;2420;51.202;8.698;2023-03-21T07:13:07;7.72;;;4.70;;
4812;SDS011;2420;51.202;8.698;2023-03-21T07:15:32;9.32;;;4.68;;
4812;SDS011;2420;51.202;8.698;2023-03-21T07:18:01;11.40;;;5.05;;
4812;SDS011;2420;51.202;8.698;2023-03-21T07:20:28;10.80;;;4.68;;
4812;SDS011;2420;51.202;8.698;2023-03-21T07:22:54;10.45;;;4.63;;
4812;SDS011;2420;51.202;8.698;2023-03-21T07:25:20;9.35;;;5.25;;
4812;SDS011;2420;51.202;8.698;2023-03-21T07:27:46;8.63;;;4.85;;
4812;SDS011;2420;51.202;8.698;2023-03-21T07:30:11;7.25;;;4.75;;
4812;SDS011;2420;51.202;8.698;2023-03-21T07:32:37;8.18;;;4.80;;
4812;SDS011;2420;51.202;8.698;2023-03-21T07:35:03;9.95;;;5.30;;
4812;SDS011;2420;51.202;8.698;2023-03-21T07:37:34;8.70;;;4.72;;
4812;SDS011;2420;51.202;8.698;2023-03-21T07:40:00;10.68;;;5.40;;
4812;SDS011;2420;51.202;8.698;2023-03-21T07:42:26;10.35;;;4.82;;
4812;SDS011;2420;51.202;8.698;2023-03-21T07:44:51;9.82;;;4.88;;
4812;SDS011;2420;51.202;8.698;2023-03-21T07:47:19;7.70;;;4.20;;
4812;SDS011;2420;51.202;8.698;2023-03-21T07:49:45;8.77;;;5.32;;
4812;SDS011;2420;51.202;8.698;2023-03-21T07:52:11;8.27;;;5.00;;
4812;SDS011;2420;51.202;8.698;2023-03-21T07:54:37;10.75;;;6.07;;
4812;SDS011;2420;51.202;8.698;2023-03-21T07:57:02;17.75;;;6.40;;
4812;SDS011;2420;51.202;8.698;2023-03-21T07:59:28;12.02;;;5.80;;
4812;SDS011;2420;51.202;8.698;2023-03-21T08:01:53;10.75;;;5.65;;
4812;SDS011;2420;51.202;8.698;2023-03-21T08:04:19;9.73;;;5.50;;
4812;SDS011;2420;51.202;8.698;2023-03-21T08:06:46;13.05;;;5.63;;
4812;SDS011;2420;51.202;8.698;2023-03-21T08:09:12;11.98;;;5.50;;
4812;SDS011;2420;51.202;8.698;2023-03-21T08:11:38;11.23;;;5.78;;
4812;SDS011;2420;51.202;8.698;2023-03-21T08:14:04;11.52;;;6.38;;
4812;SDS011;2420;51.202;8.698;2023-03-21T08:16:30;12.32;;;5.72;;
4812;SDS011;2420;51.202;8.698;2023-03-21T08:18:55;12.77;;;5.72;;
4812;SDS011;2420;51.202;8.698;2023-03-21T08:21:21;10.00;;;6.03;;
4812;SDS011;2420;51.202;8.698;2023-03-21T08:23:46;11.00;;;5.68;;
4812;SDS011;2420;51.202;8.698;2023-03-21T08:26:12;13.32;;;5.63;;
4812;SDS011;2420;51.202;8.698;2023-03-21T08:28:42;14.18;;;5.80;;
4812;SDS011;2420;51.202;8.698;2023-03-21T08:31:08;9.35;;;5.38;;
4812;SDS011;2420;51.202;8.698;2023-03-21T08:33:35;8.63;;;5.57;;
4812;SDS011;2420;51.202;8.698;2023-03-21T08:36:01;8.48;;;5.30;;
4812;SDS011;2420;51.202;8.698;2023-03-21T08:38:28;12.38;;;5.78;;
4812;SDS011;2420;51.202;8.698;2023-03-21T08:40:54;10.45;;;5.72;;
4812;SDS011;2420;51.202;8.698;2023-03-21T08:43:20;10.20;;;4.97;;
4812;SDS011;2420;51.202;8.698;2023-03-21T08:45:46;10.65;;;5.32;;
4812;SDS011;2420;51.202;8.698;2023-03-21T08:48:12;10.52;;;5.72;;
4812;SDS011;2420;51.202;8.698;2023-03-21T08:50:38;10.23;;;5.60;;
4812;SDS011;2420;51.202;8.698;2023-03-21T08:53:04;10.48;;;5.38;;
4812;SDS011;2420;51.202;8.698;2023-03-21T08:55:30;10.30;;;5.35;;
4812;SDS011;2420;51.202;8.698;2023-03-21T08:57:57;9.57;;;5.22;;
4812;SDS011;2420;51.202;8.698;2023-03-21T09:00:23;14.05;;;5.40;;
4812;SDS011;2420;51.202;8.698;2023-03-21T09:02:49;12.85;;;6.00;;
4812;SDS011;2420;51.202;8.698;2023-03-21T09:05:16;12.55;;;5.47;;
4812;SDS011;2420;51.202;8.698;2023-03-21T09:07:42;11.73;;;6.05;;
4812;SDS011;2420;51.202;8.698;2023-03-21T09:10:10;8.93;;;4.95;;
4812;SDS011;2420;51.202;8.698;2023-03-21T09:12:40;13.30;;;5.00;;
4812;SDS011;2420;51.202;8.698;2023-03-21T09:15:07;14.90;;;5.00;;
4812;SDS011;2420;51.202;8.698;2023-03-21T09:17:34;12.38;;;4.93;;
4812;SDS011;2420;51.202;8.698;2023-03-21T09:20:00;8.15;;;4.63;;
4812;SDS011;2420;51.202;8.698;2023-03-21T09:22:36;11.93;;;5.22;;
4812;SDS011;2420;51.202;8.698;2023-03-21T09:25:02;10.85;;;5.43;;
4812;SDS011;2420;51.202;8.698;2023-03-21T09:27:32;12.25;;;5.30;;
4812;SDS011;2420;51.202;8.698;2023-03-21T09:29:58;9.50;;;4.70;;
4812;SDS011;2420;51.202;8.698;2023-03-21T09:32:24;10.75;;;4.95;;
4812;SDS011;2420;51.202;8.698;2023-03-21T09:34:51;10.02;;;5.70;;
4812;SDS011;2420;51.202;8.698;2023-03-21T09:37:17;11.20;;;4.97;;
4812;SDS011;2420;51.202;8.698;2023-03-21T09:39:42;12.70;;;5.22;;
4812;SDS011;2420;51.202;8.698;2023-03-21T09:45:07;11.43;;;5.05;;
4812;SDS011;2420;51.202;8.698;2023-03-21T09:47:50;11.75;;;5.43;;
4812;SDS011;2420;51.202;8.698;2023-03-21T09:50:25;8.80;;;5.20;;
4812;SDS011;2420;51.202;8.698;2023-03-21T09:52:57;11.77;;;6.03;;
4812;SDS011;2420;51.202;8.698;2023-03-21T09:55:30;9.23;;;5.00;;
4812;SDS011;2420;51.202;8.698;2023-03-21T10:00:34;12.10;;;5.72;;
4812;SDS011;2420;51.202;8.698;2023-03-21T10:03:05;10.98;;;5.85;;
4812;SDS011;2420;51.202;8.698;2023-03-21T10:05:42;12.63;;;6.00;;
4812;SDS011;2420;51.202;8.698;2023-03-21T10:08:11;13.02;;;6.38;;
4812;SDS011;2420;51.202;8.698;2023-03-21T10:10:47;14.32;;;5.80;;
4812;SDS011;2420;51.202;8.698;2023-03-21T10:13:22;11.23;;;6.57;;
4812;SDS011;2420;51.202;8.698;2023-03-21T10:15:56;10.55;;;5.95;;
4812;SDS011;2420;51.202;8.698;2023-03-21T10:18:25;13.57;;;6.80;;
4812;SDS011;2420;51.202;8.698;2023-03-21T10:20:56;11.30;;;6.35;;
4812;SDS011;2420;51.202;8.698;2023-03-21T10:23:27;12.57;;;6.05;;
4812;SDS011;2420;51.202;8.698;2023-03-21T10:25:53;11.00;;;6.38;;
4812;SDS011;2420;51.202;8.698;2023-03-21T10:28:31;13.30;;;6.85;;
4812;SDS011;2420;51.202;8.698;2023-03-21T10:31:03;16.85;;;6.25;;
4812;SDS011;2420;51.202;8.698;2023-03-21T10:33:32;14.02;;;7.40;;
4812;SDS011;2420;51.202;8.698;2023-03-21T10:39:03;10.15;;;5.90;;
4812;SDS011;2420;51.202;8.698;2023-03-21T10:41:31;10.88;;;6.00;;
4812;SDS011;2420;51.202;8.698;2023-03-21T10:44:13;8.60;;;5.50;;
4812;SDS011;2420;51.202;8.698;2023-03-21T10:46:51;10.80;;;6.50;;
4812;SDS011;2420;51.202;8.698;2023-03-21T10:49:18;9.95;;;5.03;;
4812;SDS011;2420;51.202;8.698;2023-03-21T10:51:45;8.82;;;5.20;;
4812;SDS011;2420;51.202;8.698;2023-03-21T10:54:14;10.98;;;5.78;;
4812;SDS011;2420;51.202;8.698;2023-03-21T10:56:44;10.98;;;5.70;;
4812;SDS011;2420;51.202;8.698;2023-03-21T11:00:03;11.27;;;5.72;;
4812;SDS011;2420;51.202;8.698;2023-03-21T11:02:28;14.30;;;9.15;;
4812;SDS011;2420;51.202;8.698;2023-03-21T11:04:57;8.30;;;5.22;;
4812;SDS011;2420;51.202;8.698;2023-03-21T11:07:29;10.55;;;6.03;;
4812;SDS011;2420;51.202;8.698;2023-03-21T11:12:30;10.35;;;6.00;;
4812;SDS011;2420;51.202;8.698;2023-03-21T11:17:45;9.05;;;6.00;;
4812;SDS011;2420;51.202;8.698;2023-03-21T11:20:15;8.50;;;5.50;;
4812;SDS011;2420;51.202;8.698;2023-03-21T11:22:43;10.00;;;5.63;;
4812;SDS011;2420;51.202;8.698;2023-03-21T11:25:18;9.95;;;6.07;;
4812;SDS011;2420;51.202;8.698;2023-03-21T11:27:52;7.85;;;4.97;;
4812;SDS011;2420;51.202;8.698;2023-03-21T11:30:25;7.68;;;4.70;;
4812;SDS011;2420;51.202;8.698;2023-03-21T11:32:55;8.48;;;4.53;;
4812;SDS011;2420;51.202;8.698;2023-03-21T11:35:35;9.75;;;4.97;;
4812;SDS011;2420;51.202;8.698;2023-03-21T11:38:03;8.13;;;4.82;;
4812;SDS011;2420;51.202;8.698;2023-03-21T11:40:32;6.82;;;4.60;;
4812;SDS011;2420;51.202;8.698;2023-03-21T11:42:59;7.45;;;4.72;;
4812;SDS011;2420;51.202;8.698;2023-03-21T11:47:55;8.20;;;4.93;;
4812;SDS011;2420;51.202;8.698;2023-03-21T11:53:16;8.88;;;4.93;;
4812;SDS011;2420;51.202;8.698;2023-03-21T12:01:37;9.57;;;5.68;;
4812;SDS011;2420;51.202;8.698;2023-03-21T12:09:38;7.63;;;4.45;;
4812;SDS011;2420;51.202;8.698;2023-03-21T12:15:23;6.75;;;4.40;;
4812;SDS011;2420;51.202;8.698;2023-03-21T12:18:02;7.30;;;4.18;;
4812;SDS011;2420;51.202;8.698;2023-03-21T12:20:40;6.28;;;4.30;;
4812;SDS011;2420;51.202;8.698;2023-03-21T12:39:47;9.57;;;5.63;;
4812;SDS011;2420;51.202;8.698;2023-03-21T12:44:53;5.78;;;4.47;;
4812;SDS011;2420;51.202;8.698;2023-03-21T12:47:29;8.30;;;4.68;;
4812;SDS011;2420;51.202;8.698;2023-03-21T12:52:43;8.23;;;4.70;;
4812;SDS011;2420;51.202;8.698;2023-03-21T12:55:19;7.78;;;4.80;;
4812;SDS011;2420;51.202;8.698;2023-03-21T13:00:37;8.13;;;4.53;;
4812;SDS011;2420;51.202;8.698;2023-03-21T13:03:14;9.52;;;5.03;;
4812;SDS011;2420;51.202;8.698;2023-03-21T13:05:50;8.10;;;4.45;;
4812;SDS011;2420;51.202;8.698;2023-03-21T13:08:22;7.13;;;4.35;;
4812;SDS011;2420;51.202;8.698;2023-03-21T13:11:09;7.18;;;4.95;;
4812;SDS011;2420;51.202;8.698;2023-03-21T13:19:01;8.02;;;4.70;;
4812;SDS011;2420;51.202;8.698;2023-03-21T13:21:51;6.55;;;4.93;;
4812;SDS011;2420;51.202;8.698;2023-03-21T13:24:31;8.57;;;5.30;;
4812;SDS011;2420;51.202;8.698;2023-03-21T13:27:12;7.38;;;5.18;;
4812;SDS011;2420;51.202;8.698;2023-03-21T13:30:01;9.35;;;5.45;;
4812;SDS011;2420;51.202;8.698;2023-03-21T13:32:34;9.77;;;6.05;;
4812;SDS011;2420;51.202;8.698;2023-03-21T13:40:47;12.43;;;6.70;;
4812;SDS011;2420;51.202;8.698;2023-03-21T13:43:39;11.32;;;6.70;;
4812;SDS011;2420;51.202;8.698;2023-03-21T13:48:58;11.18;;;6.85;;
4812;SDS011;2420;51.202;8.698;2023-03-21T13:51:39;10.60;;;6.95;;
4812;SDS011;2420;51.202;8.698;2023-03-21T13:59:12;11.93;;;6.68;;
4812;SDS011;2420;51.202;8.698;2023-03-21T14:02:11;10.30;;;6.60;;
4812;SDS011;2420;51.202;8.698;2023-03-21T14:04:55;9.50;;;6.35;;
4812;SDS011;2420;51.202;8.698;2023-03-21T14:07:26;9.70;;;6.22;;
4812;SDS011;2420;51.202;8.698;2023-03-21T14:10:04;11.13;;;6.35;;
4812;SDS011;2420;51.202;8.698;2023-03-21T14:12:51;9.10;;;6.05;;
4812;SDS011;2420;51.202;8.698;2023-03-21T14:15:18;12.32;;;6.53;;
4812;SDS011;2420;51.202;8.698;2023-03-21T14:20:18;9.20;;;5.85;;
4812;SDS011;2420;51.202;8.698;2023-03-21T14:22:45;9.15;;;6.55;;
4812;SDS011;2420;51.202;8.698;2023-03-21T14:25:12;7.82;;;5.50;;
4812;SDS011;2420;51.202;8.698;2023-03-21T14:27:41;11.80;;;6.07;;
4812;SDS011;2420;51.202;8.698;2023-03-21T14:30:32;7.28;;;5.95;;
4812;SDS011;2420;51.202;8.698;2023-03-21T14:33:03;10.73;;;6.85;;
4812;SDS011;2420;51.202;8.698;2023-03-21T14:35:45;8.30;;;5.93;;
4812;SDS011;2420;51.202;8.698;2023-03-21T14:38:22;8.70;;;5.78;;
4812;SDS011;2420;51.202;8.698;2023-03-21T14:40:51;9.80;;;5.40;;
4812;SDS011;2420;51.202;8.698;2023-03-21T14:43:19;8.00;;;5.35;;
4812;SDS011;2420;51.202;8.698;2023-03-21T14:45:47;8.57;;;5.28;;
4812;SDS011;2420;51.202;8.698;2023-03-21T14:48:17;9.70;;;5.10;;
4812;SDS011;2420;51.202;8.698;2023-03-21T14:50:47;6.20;;;4.47;;
4812;SDS011;2420;51.202;8.698;2023-03-21T14:53:22;7.80;;;4.50;;
4812;SDS011;2420;51.202;8.698;2023-03-21T14:56:16;7.47;;;3.95;;
4812;SDS011;2420;51.202;8.698;2023-03-21T14:58:47;7.38;;;4.03;;
4812;SDS011;2420;51.202;8.698;2023-03-21T15:01:15;5.30;;;4.05;;
4812;SDS011;2420;51.202;8.698;2023-03-21T15:03:49;7.80;;;4.00;;
4812;SDS011;2420;51.202;8.698;2023-03-21T15:06:16;7.80;;;4.38;;
4812;SDS011;2420;51.202;8.698;2023-03-21T15:08:52;6.63;;;4.72;;
4812;SDS011;2420;51.202;8.698;2023-03-21T15:11:21;5.53;;;4.30;;
4812;SDS011;2420;51.202;8.698;2023-03-21T15:14:02;5.63;;;4.50;;
4812;SDS011;2420;51.202;8.698;2023-03-21T15:16:37;5.80;;;3.88;;
4812;SDS011;2420;51.202;8.698;2023-03-21T15:19:03;6.68;;;4.30;;
4812;SDS011;2420;51.202;8.698;2023-03-21T15:21:37;3.95;;;3.10;;
4812;SDS011;2420;51.202;8.698;2023-03-21T15:24:17;7.47;;;3.85;;
4812;SDS011;2420;51.202;8.698;2023-03-21T15:27:06;5.65;;;4.13;;
4812;SDS011;2420;51.202;8.698;2023-03-21T15:29:37;7.53;;;4.15;;
4812;SDS011;2420;51.202;8.698;2023-03-21T15:32:06;6.40;;;3.75;;
4812;SDS011;2420;51.202;8.698;2023-03-21T15:34:43;5.53;;;3.85;;
4812;SDS011;2420;51.202;8.698;2023-03-21T15:37:23;5.50;;;3.90;;
4812;SDS011;2420;51.202;8.698;2023-03-21T15:39:51;4.70;;;3.10;;
4812;SDS011;2420;51.202;8.698;2023-03-21T15:42:24;4.78;;;2.92;;
4812;SDS011;2420;51.202;8.698;2023-03-21T15:45:00;5.20;;;3.15;;
4812;SDS011;2420;51.202;8.698;2023-03-21T15:53:02;6.35;;;3.10;;
4812;SDS011;2420;51.202;8.698;2023-03-21T15:55:37;8.73;;;4.60;;
4812;SDS011;2420;51.202;8.698;2023-03-21T15:58:22;4.13;;;3.35;;
4812;SDS011;2420;51.202;8.698;2023-03-21T16:00:51;7.07;;;3.78;;
4812;SDS011;2420;51.202;8.698;2023-03-21T16:03:29;8.65;;;3.80;;
4812;SDS011;2420;51.202;8.698;2023-03-21T16:08:32;5.20;;;4.07;;
4812;SDS011;2420;51.202;8.698;2023-03-21T16:13:46;6.25;;;4.03;;
4812;SDS011;2420;51.202;8.698;2023-03-21T16:16:16;6.57;;;4.00;;
4812;SDS011;2420;51.202;8.698;2023-03-21T16:18:45;5.65;;;4.20;;
4812;SDS011;2420;51.202;8.698;2023-03-21T16:21:12;9.30;;;4.20;;
4812;SDS011;2420;51.202;8.698;2023-03-21T16:23:39;4.70;;;3.60;;
4812;SDS011;2420;51.202;8.698;2023-03-21T16:26:06;7.20;;;3.60;;
4812;SDS011;2420;51.202;8.698;2023-03-21T16:28:35;5.85;;;3.50;;
4812;SDS011;2420;51.202;8.698;2023-03-21T16:31:00;5.68;;;3.47;;
4812;SDS011;2420;51.202;8.698;2023-03-21T16:33:26;4.75;;;3.72;;
4812;SDS011;2420;51.202;8.698;2023-03-21T16:35:51;6.13;;;3.75;;
4812;SDS011;2420;51.202;8.698;2023-03-21T16:38:18;5.03;;;3.95;;
4812;SDS011;2420;51.202;8.698;2023-03-21T16:40:43;5.90;;;4.03;;
4812;SDS011;2420;51.202;8.698;2023-03-21T16:43:09;6.63;;;4.13;;
4812;SDS011;2420;51.202;8.698;2023-03-21T16:45:35;6.93;;;4.78;;
4812;SDS011;2420;51.202;8.698;2023-03-21T16:48:00;7.43;;;4.40;;
4812;SDS011;2420;51.202;8.698;2023-03-21T16:50:28;7.45;;;4.22;;
4812;SDS011;2420;51.202;8.698;2023-03-21T16:52:59;8.43;;;5.10;;
4812;SDS011;2420;51.202;8.698;2023-03-21T16:55:26;7.68;;;4.60;;
4812;SDS011;2420;51.202;8.698;2023-03-21T16:57:52;6.95;;;4.80;;
4812;SDS011;2420;51.202;8.698;2023-03-21T17:00:20;8.90;;;5.70;;
4812;SDS011;2420;51.202;8.698;2023-03-21T17:02:49;11.07;;;6.78;;
4812;SDS011;2420;51.202;8.698;2023-03-21T17:05:16;10.00;;;5.78;;
4812;SDS011;2420;51.202;8.698;2023-03-21T17:07:41;8.02;;;5.00;;
4812;SDS011;2420;51.202;8.698;2023-03-21T17:10:26;8.43;;;5.68;;
4812;SDS011;2420;51.202;8.698;2023-03-21T17:12:54;7.63;;;5.32;;
4812;SDS011;2420;51.202;8.698;2023-03-21T17:15:19;7.07;;;5.00;;
4812;SDS011;2420;51.202;8.698;2023-03-21T17:17:46;9.35;;;5.82;;
4812;SDS011;2420;51.202;8.698;2023-03-21T17:22:48;8.07;;;5.43;;
4812;SDS011;2420;51.202;8.698;2023-03-21T17:25:15;10.38;;;6.00;;
4812;SDS011;2420;51.202;8.698;2023-03-21T17:27:41;8.18;;;5.80;;